sensor_id;sensor_type;location;lat;lon;timestamp;pressure;altitude;pressure_sealevel;temperature;humidity
9462;BME280;4769;42.660;23.262;2023-02-17T00:01:10;94869.41;;;5.44;64.23
9462;BME280;4769;42.660;23.262;2023-02-17T00:03:38;94864.81;;;5.46;64.15
9462;BME280;4769;42.660;23.262;2023-02-17T00:06:06;94879.13;;;5.50;64.03
9462;BME280;4769;42.660;23.262;2023-02-17T00:08:33;94875.41;;;5.38;64.63
9462;BME280;4769;42.660;23.262;2023-02-17T00:11:00;94874.03;;;5.42;64.47
9462;BME280;4769;42.660;23.262;2023-02-17T00:13:26;94877.41;;;5.36;64.76
9462;BME280;4769;42.660;23.262;2023-02-17T00:15:53;94879.25;;;5.42;64.64
9462;BME280;4769;42.660;23.262;2023-02-17T00:18:21;94876.97;;;5.33;64.84
9462;BME280;4769;42.660;23.262;2023-02-17T00:20:50;94877.84;;;5.40;64.67
9462;BME280;4769;42.660;23.262;2023-02-17T00:23:17;94875.47;;;5.45;64.53
9462;BME280;4769;42.660;23.262;2023-02-17T00:25:43;94877.84;;;5.40;64.30
9462;BME280;4769;42.660;23.262;2023-02-17T00:28:10;94876.00;;;5.34;64.82
9462;BME280;4769;42.660;23.262;2023-02-17T00:30:37;94878.56;;;5.27;65.09
9462;BME280;4769;42.660;23.262;2023-02-17T00:33:04;94864.78;;;5.19;65.28
9462;BME280;4769;42.660;23.262;2023-02-17T00:35:31;94858.72;;;5.12;65.14
9462;BME280;4769;42.660;23.262;2023-02-17T00:37:59;94870.88;;;5.26;64.87
9462;BME280;4769;42.660;23.262;2023-02-17T00:40:26;94862.88;;;5.27;64.39
9462;BME280;4769;42.660;23.262;2023-02-17T00:42:53;94850.03;;;5.32;64.10
9462;BME280;4769;42.660;23.262;2023-02-17T00:45:20;94841.75;;;5.29;64.36
9462;BME280;4769;42.660;23.262;2023-02-17T00:47:47;94843.19;;;5.31;64.33
9462;BME280;4769;42.660;23.262;2023-02-17T00:50:14;94835.53;;;5.30;64.06
9462;BME280;4769;42.660;23.262;2023-02-17T00:52:41;94826.03;;;5.22;64.42
9462;BME280;4769;42.660;23.262;2023-02-17T00:55:09;94832.69;;;5.25;64.37
9462;BME280;4769;42.660;23.262;2023-02-17T00:57:35;94829.91;;;5.33;64.08
9462;BME280;4769;42.660;23.262;2023-02-17T01:00:04;94820.34;;;5.46;62.38
9462;BME280;4769;42.660;23.262;2023-02-17T01:02:33;94825.66;;;5.59;62.15
9462;BME280;4769;42.660;23.262;2023-02-17T01:05:00;94831.28;;;5.56;62.11
9462;BME280;4769;42.660;23.262;2023-02-17T01:07:26;94840.94;;;5.28;64.91
9462;BME280;4769;42.660;23.262;2023-02-17T01:09:53;94836.03;;;4.91;66.82
9462;BME280;4769;42.660;23.262;2023-02-17T01:12:21;94851.75;;;4.77;68.12
9462;BME280;4769;42.660;23.262;2023-02-17T01:14:48;94841.81;;;4.66;68.27
9462;BME280;4769;42.660;23.262;2023-02-17T01:17:15;94837.53;;;4.58;68.49
9462;BME280;4769;42.660;23.262;2023-02-17T01:19:41;94840.50;;;4.55;68.83
9462;BME280;4769;42.660;23.262;2023-02-17T01:22:09;94836.41;;;4.67;67.88
9462;BME280;4769;42.660;23.262;2023-02-17T01:24:37;94830.84;;;4.77;67.37
9462;BME280;4769;42.660;23.262;2023-02-17T01:27:04;94825.03;;;4.75;66.88
9462;BME280;4769;42.660;23.262;2023-02-17T01:29:32;94830.13;;;4.83;67.00
9462;BME280;4769;42.660;23.262;2023-02-17T01:31:59;94828.94;;;4.85;67.32
9462;BME280;4769;42.660;23.262;2023-02-17T01:34:25;94829.91;;;4.84;67.33
9462;BME280;4769;42.660;23.262;2023-02-17T01:36:52;94829.31;;;4.82;66.99
9462;BME280;4769;42.660;23.262;2023-02-17T01:39:19;94834.00;;;4.87;67.07
9462;BME280;4769;42.660;23.262;2023-02-17T01:41:46;94822.72;;;4.86;66.57
9462;BME280;4769;42.660;23.262;2023-02-17T01:44:15;94817.56;;;4.93;66.26
9462;BME280;4769;42.660;23.262;2023-02-17T01:46:45;94827.94;;;4.86;66.99
9462;BME280;4769;42.660;23.262;2023-02-17T01:49:18;94818.19;;;4.53;67.69
9462;BME280;4769;42.660;23.262;2023-02-17T01:51:50;94820.28;;;4.43;68.67
9462;BME280;4769;42.660;23.262;2023-02-17T01:54:20;94816.75;;;4.50;68.84
9462;BME280;4769;42.660;23.262;2023-02-17T01:56:49;94809.63;;;4.59;68.05
9462;BME280;4769;42.660;23.262;2023-02-17T01:59:19;94820.75;;;4.67;68.09
9462;BME280;4769;42.660;23.262;2023-02-17T02:01:51;94800.09;;;4.51;68.73
9462;BME280;4769;42.660;23.262;2023-02-17T02:04:23;94815.50;;;4.46;69.42
9462;BME280;4769;42.660;23.262;2023-02-17T02:06:51;94813.91;;;4.45;69.37
9462;BME280;4769;42.660;23.262;2023-02-17T02:09:20;94796.38;;;4.39;69.59
9462;BME280;4769;42.660;23.262;2023-02-17T02:11:48;94808.84;;;4.44;69.13
9462;BME280;4769;42.660;23.262;2023-02-17T02:14:16;94793.25;;;4.29;69.95
9462;BME280;4769;42.660;23.262;2023-02-17T02:16:50;94803.75;;;4.00;71.40
9462;BME280;4769;42.660;23.262;2023-02-17T02:19:42;94814.34;;;4.13;71.65
9462;BME280;4769;42.660;23.262;2023-02-17T02:22:42;94811.66;;;4.07;71.39
9462;BME280;4769;42.660;23.262;2023-02-17T02:25:28;94818.44;;;4.01;72.06
9462;BME280;4769;42.660;23.262;2023-02-17T02:28:05;94822.06;;;3.86;72.58
9462;BME280;4769;42.660;23.262;2023-02-17T02:30:52;94826.06;;;3.53;75.06
9462;BME280;4769;42.660;23.262;2023-02-17T02:33:32;94819.59;;;3.49;75.23
9462;BME280;4769;42.660;23.262;2023-02-17T02:36:03;94819.56;;;3.63;75.16
9462;BME280;4769;42.660;23.262;2023-02-17T02:38:36;94815.88;;;3.72;74.84
9462;BME280;4769;42.660;23.262;2023-02-17T02:41:08;94816.34;;;3.61;74.22
9462;BME280;4769;42.660;23.262;2023-02-17T02:43:37;94818.09;;;3.90;73.46
9462;BME280;4769;42.660;23.262;2023-02-17T02:46:04;94815.13;;;3.93;72.72
9462;BME280;4769;42.660;23.262;2023-02-17T02:48:33;94817.59;;;3.80;73.30
9462;BME280;4769;42.660;23.262;2023-02-17T02:51:20;94810.03;;;3.85;72.46
9462;BME280;4769;42.660;23.262;2023-02-17T02:53:57;94811.06;;;4.05;72.18
9462;BME280;4769;42.660;23.262;2023-02-17T02:56:38;94808.69;;;4.10;72.18
9462;BME280;4769;42.660;23.262;2023-02-17T02:59:16;94813.56;;;4.13;71.39
9462;BME280;4769;42.660;23.262;2023-02-17T03:01:51;94819.53;;;4.28;70.89
9462;BME280;4769;42.660;23.262;2023-02-17T03:04:27;94816.94;;;4.28;70.91
9462;BME280;4769;42.660;23.262;2023-02-17T03:06:59;94820.97;;;4.30;70.76
9462;BME280;4769;42.660;23.262;2023-02-17T03:09:28;94818.91;;;4.26;70.66
9462;BME280;4769;42.660;23.262;2023-02-17T03:11:56;94825.75;;;4.27;70.88
9462;BME280;4769;42.660;23.262;2023-02-17T03:14:24;94802.19;;;4.20;71.38
9462;BME280;4769;42.660;23.262;2023-02-17T03:16:52;94808.78;;;4.16;71.36
9462;BME280;4769;42.660;23.262;2023-02-17T03:19:23;94815.91;;;4.08;71.65
9462;BME280;4769;42.660;23.262;2023-02-17T03:21:53;94817.03;;;3.99;72.42
9462;BME280;4769;42.660;23.262;2023-02-17T03:24:21;94819.56;;;4.13;71.89
9462;BME280;4769;42.660;23.262;2023-02-17T03:26:48;94818.53;;;4.29;71.18
9462;BME280;4769;42.660;23.262;2023-02-17T03:29:15;94817.47;;;4.23;70.59
9462;BME280;4769;42.660;23.262;2023-02-17T03:31:42;94799.03;;;4.25;70.79
9462;BME280;4769;42.660;23.262;2023-02-17T03:34:09;94798.78;;;4.20;71.38
9462;BME280;4769;42.660;23.262;2023-02-17T03:36:37;94811.78;;;4.34;70.78
9462;BME280;4769;42.660;23.262;2023-02-17T03:39:04;94793.25;;;4.29;70.73
9462;BME280;4769;42.660;23.262;2023-02-17T03:41:30;94821.47;;;4.40;70.53
9462;BME280;4769;42.660;23.262;2023-02-17T03:43:57;94820.81;;;4.17;71.55
9462;BME280;4769;42.660;23.262;2023-02-17T03:46:24;94809.88;;;4.07;72.42
9462;BME280;4769;42.660;23.262;2023-02-17T03:48:51;94800.03;;;3.88;73.02
9462;BME280;4769;42.660;23.262;2023-02-17T03:51:19;94820.66;;;3.40;75.68
9462;BME280;4769;42.660;23.262;2023-02-17T03:53:48;94814.47;;;3.55;74.90
9462;BME280;4769;42.660;23.262;2023-02-17T03:56:15;94806.34;;;3.21;75.98
9462;BME280;4769;42.660;23.262;2023-02-17T03:58:43;94822.97;;;3.49;75.74
9462;BME280;4769;42.660;23.262;2023-02-17T04:01:11;94821.63;;;3.53;75.47
9462;BME280;4769;42.660;23.262;2023-02-17T04:03:39;94825.50;;;3.57;75.50
9462;BME280;4769;42.660;23.262;2023-02-17T04:06:07;94806.63;;;3.55;75.02
9462;BME280;4769;42.660;23.262;2023-02-17T04:08:34;94829.00;;;3.50;74.88
9462;BME280;4769;42.660;23.262;2023-02-17T04:11:03;94823.19;;;3.48;74.47
9462;BME280;4769;42.660;23.262;2023-02-17T04:13:31;94817.31;;;3.60;75.07
9462;BME280;4769;42.660;23.262;2023-02-17T04:15:58;94813.72;;;3.47;75.15
9462;BME280;4769;42.660;23.262;2023-02-17T04:18:26;94801.25;;;3.13;76.50
9462;BME280;4769;42.660;23.262;2023-02-17T04:20:53;94819.50;;;3.42;76.09
9462;BME280;4769;42.660;23.262;2023-02-17T04:23:20;94815.50;;;3.61;74.87
9462;BME280;4769;42.660;23.262;2023-02-17T04:25:47;94807.91;;;3.59;74.84
9462;BME280;4769;42.660;23.262;2023-02-17T04:28:16;94811.56;;;3.65;74.91
9462;BME280;4769;42.660;23.262;2023-02-17T04:30:44;94806.91;;;3.60;74.08
9462;BME280;4769;42.660;23.262;2023-02-17T04:33:11;94812.28;;;3.59;74.58
9462;BME280;4769;42.660;23.262;2023-02-17T04:35:38;94808.16;;;3.50;74.29
9462;BME280;4769;42.660;23.262;2023-02-17T04:38:05;94811.13;;;3.47;75.50
9462;BME280;4769;42.660;23.262;2023-02-17T04:40:32;94811.41;;;3.37;75.63
9462;BME280;4769;42.660;23.262;2023-02-17T04:42:59;94817.25;;;3.54;75.27
9462;BME280;4769;42.660;23.262;2023-02-17T04:45:28;94831.38;;;3.59;75.43
9462;BME280;4769;42.660;23.262;2023-02-17T04:47:55;94840.97;;;3.59;74.92
9462;BME280;4769;42.660;23.262;2023-02-17T04:50:22;94826.84;;;3.53;75.70
9462;BME280;4769;42.660;23.262;2023-02-17T04:52:49;94835.94;;;3.43;76.12
9462;BME280;4769;42.660;23.262;2023-02-17T04:55:16;94828.22;;;3.35;75.98
9462;BME280;4769;42.660;23.262;2023-02-17T04:57:42;94826.69;;;3.40;75.72
9462;BME280;4769;42.660;23.262;2023-02-17T05:00:10;94821.28;;;3.42;75.58
9462;BME280;4769;42.660;23.262;2023-02-17T05:02:38;94823.63;;;3.51;75.85
9462;BME280;4769;42.660;23.262;2023-02-17T05:05:05;94813.63;;;3.55;75.74
9462;BME280;4769;42.660;23.262;2023-02-17T05:07:32;94832.72;;;3.55;75.19
9462;BME280;4769;42.660;23.262;2023-02-17T05:09:59;94826.06;;;3.53;75.47
9462;BME280;4769;42.660;23.262;2023-02-17T05:12:26;94839.81;;;3.61;75.08
9462;BME280;4769;42.660;23.262;2023-02-17T05:14:52;94836.38;;;3.61;75.15
9462;BME280;4769;42.660;23.262;2023-02-17T05:17:20;94841.97;;;3.58;75.52
9462;BME280;4769;42.660;23.262;2023-02-17T05:19:48;94850.41;;;3.60;75.50
9462;BME280;4769;42.660;23.262;2023-02-17T05:22:15;94857.31;;;3.67;74.77
9462;BME280;4769;42.660;23.262;2023-02-17T05:24:42;94858.31;;;3.66;74.74
9462;BME280;4769;42.660;23.262;2023-02-17T05:27:09;94866.97;;;3.67;74.90
9462;BME280;4769;42.660;23.262;2023-02-17T05:29:35;94863.00;;;3.56;75.71
9462;BME280;4769;42.660;23.262;2023-02-17T05:32:02;94870.69;;;3.35;76.05
9462;BME280;4769;42.660;23.262;2023-02-17T05:34:29;94865.88;;;3.32;75.99
9462;BME280;4769;42.660;23.262;2023-02-17T05:36:57;94862.53;;;3.38;76.28
9462;BME280;4769;42.660;23.262;2023-02-17T05:39:24;94868.75;;;3.52;75.26
9462;BME280;4769;42.660;23.262;2023-02-17T05:41:50;94884.31;;;3.60;75.23
9462;BME280;4769;42.660;23.262;2023-02-17T05:44:17;94866.69;;;3.62;75.40
9462;BME280;4769;42.660;23.262;2023-02-17T05:46:44;94881.16;;;3.79;74.52
9462;BME280;4769;42.660;23.262;2023-02-17T05:49:11;94882.84;;;3.86;74.38
9462;BME280;4769;42.660;23.262;2023-02-17T05:51:37;94888.53;;;3.75;74.33
9462;BME280;4769;42.660;23.262;2023-02-17T05:54:06;94885.75;;;3.77;75.03
9462;BME280;4769;42.660;23.262;2023-02-17T05:56:32;94885.66;;;3.70;74.94
9462;BME280;4769;42.660;23.262;2023-02-17T05:58:59;94887.38;;;3.78;75.00
9462;BME280;4769;42.660;23.262;2023-02-17T06:01:26;94889.69;;;3.73;76.04
9462;BME280;4769;42.660;23.262;2023-02-17T06:03:53;94888.53;;;3.61;76.89
9462;BME280;4769;42.660;23.262;2023-02-17T06:06:23;94896.34;;;3.75;76.49
9462;BME280;4769;42.660;23.262;2023-02-17T06:08:50;94890.63;;;3.80;76.84
9462;BME280;4769;42.660;23.262;2023-02-17T06:11:19;94896.38;;;3.90;76.34
9462;BME280;4769;42.660;23.262;2023-02-17T06:13:45;94894.13;;;4.01;75.58
9462;BME280;4769;42.660;23.262;2023-02-17T06:16:12;94892.47;;;4.15;75.36
9462;BME280;4769;42.660;23.262;2023-02-17T06:18:39;94887.75;;;4.25;74.88
9462;BME280;4769;42.660;23.262;2023-02-17T06:21:06;94884.97;;;4.26;73.90
9462;BME280;4769;42.660;23.262;2023-02-17T06:23:32;94896.41;;;4.25;74.14
9462;BME280;4769;42.660;23.262;2023-02-17T06:25:59;94883.78;;;4.43;73.26
9462;BME280;4769;42.660;23.262;2023-02-17T06:28:27;94876.03;;;4.50;72.77
9462;BME280;4769;42.660;23.262;2023-02-17T06:30:54;94901.97;;;4.72;71.46
9462;BME280;4769;42.660;23.262;2023-02-17T06:33:21;94881.34;;;4.63;69.52
9462;BME280;4769;42.660;23.262;2023-02-17T06:35:48;94892.03;;;5.31;68.26
9462;BME280;4769;42.660;23.262;2023-02-17T06:38:15;94897.31;;;5.37;66.64
9462;BME280;4769;42.660;23.262;2023-02-17T06:40:42;94901.44;;;5.46;68.63
9462;BME280;4769;42.660;23.262;2023-02-17T06:43:09;94896.84;;;5.55;69.32
9462;BME280;4769;42.660;23.262;2023-02-17T06:45:37;94903.63;;;5.49;70.34
9462;BME280;4769;42.660;23.262;2023-02-17T06:48:04;94905.88;;;5.52;70.07
9462;BME280;4769;42.660;23.262;2023-02-17T06:50:31;94899.31;;;5.63;70.31
9462;BME280;4769;42.660;23.262;2023-02-17T06:52:58;94900.38;;;5.68;69.87
9462;BME280;4769;42.660;23.262;2023-02-17T06:55:24;94907.41;;;5.68;69.91
9462;BME280;4769;42.660;23.262;2023-02-17T06:57:51;94895.34;;;5.67;69.20
9462;BME280;4769;42.660;23.262;2023-02-17T07:00:19;94908.66;;;5.72;69.05
9462;BME280;4769;42.660;23.262;2023-02-17T07:02:48;94913.56;;;5.81;68.92
9462;BME280;4769;42.660;23.262;2023-02-17T07:05:15;94915.63;;;5.86;68.95
9462;BME280;4769;42.660;23.262;2023-02-17T07:07:41;94918.66;;;5.89;69.16
9462;BME280;4769;42.660;23.262;2023-02-17T07:10:09;94907.63;;;5.94;68.66
9462;BME280;4769;42.660;23.262;2023-02-17T07:12:36;94915.06;;;5.97;68.64
9462;BME280;4769;42.660;23.262;2023-02-17T07:15:03;94920.16;;;6.05;68.36
9462;BME280;4769;42.660;23.262;2023-02-17T07:17:30;94921.31;;;5.96;68.36
9462;BME280;4769;42.660;23.262;2023-02-17T07:19:59;94925.84;;;6.15;67.85
9462;BME280;4769;42.660;23.262;2023-02-17T07:22:26;94913.84;;;6.27;67.25
9462;BME280;4769;42.660;23.262;2023-02-17T07:24:52;94930.66;;;6.52;66.07
9462;BME280;4769;42.660;23.262;2023-02-17T07:27:19;94920.03;;;6.66;66.02
9462;BME280;4769;42.660;23.262;2023-02-17T07:29:49;94933.13;;;6.73;65.20
9462;BME280;4769;42.660;23.262;2023-02-17T07:32:16;94921.69;;;6.87;64.53
9462;BME280;4769;42.660;23.262;2023-02-17T07:34:42;94926.94;;;6.93;64.20
9462;BME280;4769;42.660;23.262;2023-02-17T07:37:10;94931.22;;;6.94;63.87
9462;BME280;4769;42.660;23.262;2023-02-17T07:39:38;94930.81;;;7.10;63.50
9462;BME280;4769;42.660;23.262;2023-02-17T07:42:04;94926.81;;;7.21;62.83
9462;BME280;4769;42.660;23.262;2023-02-17T07:44:32;94934.88;;;7.26;62.20
9462;BME280;4769;42.660;23.262;2023-02-17T07:46:59;94940.94;;;7.33;61.34
9462;BME280;4769;42.660;23.262;2023-02-17T07:49:25;94933.50;;;7.43;61.86
9462;BME280;4769;42.660;23.262;2023-02-17T07:51:52;94935.91;;;7.64;61.48
9462;BME280;4769;42.660;23.262;2023-02-17T07:54:20;94931.06;;;7.80;60.92
9462;BME280;4769;42.660;23.262;2023-02-17T07:56:47;94927.59;;;7.93;59.45
9462;BME280;4769;42.660;23.262;2023-02-17T07:59:14;94926.97;;;8.17;59.50
9462;BME280;4769;42.660;23.262;2023-02-17T08:01:41;94915.03;;;8.27;58.68
9462;BME280;4769;42.660;23.262;2023-02-17T08:04:08;94929.50;;;8.56;57.80
9462;BME280;4769;42.660;23.262;2023-02-17T08:06:36;94920.81;;;8.55;57.23
9462;BME280;4769;42.660;23.262;2023-02-17T08:09:03;94918.13;;;8.68;56.61
9462;BME280;4769;42.660;23.262;2023-02-17T08:11:48;94927.16;;;8.92;56.39
9462;BME280;4769;42.660;23.262;2023-02-17T08:14:32;94927.53;;;8.95;56.28
9462;BME280;4769;42.660;23.262;2023-02-17T08:16:59;94925.63;;;9.09;56.17
9462;BME280;4769;42.660;23.262;2023-02-17T08:19:26;94916.94;;;9.33;55.00
9462;BME280;4769;42.660;23.262;2023-02-17T08:21:53;94926.94;;;9.55;54.43
9462;BME280;4769;42.660;23.262;2023-02-17T08:24:19;94920.97;;;9.91;52.94
9462;BME280;4769;42.660;23.262;2023-02-17T08:26:48;94915.63;;;9.97;52.15
9462;BME280;4769;42.660;23.262;2023-02-17T08:29:15;94920.66;;;10.23;51.33
9462;BME280;4769;42.660;23.262;2023-02-17T08:31:42;94919.66;;;10.60;50.00
9462;BME280;4769;42.660;23.262;2023-02-17T08:34:10;94909.41;;;11.00;44.84
9462;BME280;4769;42.660;23.262;2023-02-17T08:36:37;94912.88;;;11.59;40.05
9462;BME280;4769;42.660;23.262;2023-02-17T08:39:05;94906.47;;;11.78;38.40
9462;BME280;4769;42.660;23.262;2023-02-17T08:41:34;94899.94;;;11.92;37.38
9462;BME280;4769;42.660;23.262;2023-02-17T08:44:06;94900.84;;;12.09;37.19
9462;BME280;4769;42.660;23.262;2023-02-17T08:46:34;94907.25;;;11.79;37.52
9462;BME280;4769;42.660;23.262;2023-02-17T08:49:02;94909.56;;;11.98;36.56
9462;BME280;4769;42.660;23.262;2023-02-17T08:51:29;94907.63;;;12.17;35.42
9462;BME280;4769;42.660;23.262;2023-02-17T08:54:05;94906.94;;;12.10;34.99
9462;BME280;4769;42.660;23.262;2023-02-17T08:56:40;94902.31;;;12.17;35.21
9462;BME280;4769;42.660;23.262;2023-02-17T08:59:11;94906.34;;;12.31;34.77
9462;BME280;4769;42.660;23.262;2023-02-17T09:01:39;94909.88;;;12.59;34.66
9462;BME280;4769;42.660;23.262;2023-02-17T09:04:07;94920.69;;;12.58;33.98
9462;BME280;4769;42.660;23.262;2023-02-17T09:06:36;94903.22;;;12.57;33.68
9462;BME280;4769;42.660;23.262;2023-02-17T09:09:05;94915.28;;;12.64;33.97
9462;BME280;4769;42.660;23.262;2023-02-17T09:11:33;94907.56;;;12.63;33.00
9462;BME280;4769;42.660;23.262;2023-02-17T09:14:00;94905.13;;;12.73;33.42
9462;BME280;4769;42.660;23.262;2023-02-17T09:16:28;94905.00;;;13.19;32.30
9462;BME280;4769;42.660;23.262;2023-02-17T09:18:55;94899.28;;;13.10;32.88
9462;BME280;4769;42.660;23.262;2023-02-17T09:21:22;94895.13;;;13.14;32.32
9462;BME280;4769;42.660;23.262;2023-02-17T09:23:49;94904.03;;;13.36;32.31
9462;BME280;4769;42.660;23.262;2023-02-17T09:26:16;94898.56;;;13.59;32.20
9462;BME280;4769;42.660;23.262;2023-02-17T09:28:45;94900.81;;;13.51;31.69
9462;BME280;4769;42.660;23.262;2023-02-17T09:31:14;94902.34;;;13.63;31.65
9462;BME280;4769;42.660;23.262;2023-02-17T09:33:44;94904.91;;;13.58;30.96
9462;BME280;4769;42.660;23.262;2023-02-17T09:36:16;94909.97;;;13.43;31.21
9462;BME280;4769;42.660;23.262;2023-02-17T09:38:44;94905.06;;;13.52;31.09
9462;BME280;4769;42.660;23.262;2023-02-17T09:41:16;94902.88;;;13.77;31.30
9462;BME280;4769;42.660;23.262;2023-02-17T09:43:44;94900.81;;;13.51;31.52
9462;BME280;4769;42.660;23.262;2023-02-17T09:46:15;94907.28;;;13.88;31.39
9462;BME280;4769;42.660;23.262;2023-02-17T09:48:45;94900.75;;;14.12;30.69
9462;BME280;4769;42.660;23.262;2023-02-17T09:51:20;94908.41;;;14.08;29.69
9462;BME280;4769;42.660;23.262;2023-02-17T09:53:52;94899.97;;;14.12;28.43
9462;BME280;4769;42.660;23.262;2023-02-17T09:56:25;94896.59;;;13.99;28.86
9462;BME280;4769;42.660;23.262;2023-02-17T09:58:57;94891.75;;;13.96;29.71
9462;BME280;4769;42.660;23.262;2023-02-17T10:01:29;94894.84;;;13.88;28.97
9462;BME280;4769;42.660;23.262;2023-02-17T10:04:01;94894.41;;;13.80;29.44
9462;BME280;4769;42.660;23.262;2023-02-17T10:06:33;94892.03;;;13.95;29.09
9462;BME280;4769;42.660;23.262;2023-02-17T10:09:06;94900.06;;;13.83;28.80
9462;BME280;4769;42.660;23.262;2023-02-17T10:11:39;94892.66;;;14.02;28.82
9462;BME280;4769;42.660;23.262;2023-02-17T10:14:11;94887.66;;;14.22;28.67
9462;BME280;4769;42.660;23.262;2023-02-17T10:16:44;94880.75;;;14.04;28.16
9462;BME280;4769;42.660;23.262;2023-02-17T10:19:19;94877.06;;;14.05;28.82
9462;BME280;4769;42.660;23.262;2023-02-17T10:21:57;94878.81;;;14.17;28.63
9462;BME280;4769;42.660;23.262;2023-02-17T10:24:28;94878.25;;;14.31;28.55
9462;BME280;4769;42.660;23.262;2023-02-17T10:27:02;94887.00;;;14.15;28.40
9462;BME280;4769;42.660;23.262;2023-02-17T10:29:44;94873.53;;;14.00;28.48
9462;BME280;4769;42.660;23.262;2023-02-17T10:32:20;94860.63;;;14.42;28.05
9462;BME280;4769;42.660;23.262;2023-02-17T10:35:01;94851.38;;;14.44;28.66
9462;BME280;4769;42.660;23.262;2023-02-17T10:37:35;94855.88;;;14.87;28.31
9462;BME280;4769;42.660;23.262;2023-02-17T10:40:11;94849.72;;;14.81;27.79
9462;BME280;4769;42.660;23.262;2023-02-17T10:42:39;94848.66;;;14.61;28.35
9462;BME280;4769;42.660;23.262;2023-02-17T10:45:10;94847.88;;;14.60;28.10
9462;BME280;4769;42.660;23.262;2023-02-17T10:47:39;94849.72;;;14.81;28.24
9462;BME280;4769;42.660;23.262;2023-02-17T10:50:16;94857.97;;;14.85;27.79
9462;BME280;4769;42.660;23.262;2023-02-17T10:52:44;94834.22;;;14.73;27.61
9462;BME280;4769;42.660;23.262;2023-02-17T10:55:18;94841.63;;;14.71;27.88
9462;BME280;4769;42.660;23.262;2023-02-17T10:57:48;94833.44;;;14.99;27.05
9462;BME280;4769;42.660;23.262;2023-02-17T11:00:18;94834.38;;;15.10;27.34
9462;BME280;4769;42.660;23.262;2023-02-17T11:02:47;94825.34;;;15.11;27.50
9462;BME280;4769;42.660;23.262;2023-02-17T11:05:24;94826.06;;;15.06;27.62
9462;BME280;4769;42.660;23.262;2023-02-17T11:07:57;94825.78;;;15.29;27.29
9462;BME280;4769;42.660;23.262;2023-02-17T11:10:27;94838.16;;;15.40;27.29
9462;BME280;4769;42.660;23.262;2023-02-17T11:12:55;94819.31;;;15.20;27.15
9462;BME280;4769;42.660;23.262;2023-02-17T11:15:25;94823.97;;;15.61;27.06
9462;BME280;4769;42.660;23.262;2023-02-17T11:17:53;94820.41;;;15.82;27.07
9462;BME280;4769;42.660;23.262;2023-02-17T11:20:31;94821.53;;;15.86;27.16
9462;BME280;4769;42.660;23.262;2023-02-17T11:23:02;94830.16;;;15.14;28.11
9462;BME280;4769;42.660;23.262;2023-02-17T11:25:31;94823.59;;;15.48;28.39
9462;BME280;4769;42.660;23.262;2023-02-17T11:28:00;94821.94;;;15.73;28.06
9462;BME280;4769;42.660;23.262;2023-02-17T11:30:32;94808.81;;;15.98;27.11
9462;BME280;4769;42.660;23.262;2023-02-17T11:33:10;94820.00;;;15.95;27.88
9462;BME280;4769;42.660;23.262;2023-02-17T11:35:47;94816.53;;;16.41;27.63
9462;BME280;4769;42.660;23.262;2023-02-17T11:38:16;94812.75;;;16.89;26.36
9462;BME280;4769;42.660;23.262;2023-02-17T11:40:51;94814.03;;;16.25;27.63
9462;BME280;4769;42.660;23.262;2023-02-17T11:43:18;94804.16;;;16.15;27.64
9462;BME280;4769;42.660;23.262;2023-02-17T11:45:53;94805.38;;;16.44;27.64
9462;BME280;4769;42.660;23.262;2023-02-17T11:48:42;94797.63;;;17.04;27.49
9462;BME280;4769;42.660;23.262;2023-02-17T11:51:17;94794.38;;;16.87;27.54
9462;BME280;4769;42.660;23.262;2023-02-17T11:53:54;94794.44;;;17.12;27.33
9462;BME280;4769;42.660;23.262;2023-02-17T11:56:29;94796.06;;;17.23;27.25
9462;BME280;4769;42.660;23.262;2023-02-17T11:59:17;94789.16;;;17.47;26.61
9462;BME280;4769;42.660;23.262;2023-02-17T12:02:01;94778.97;;;17.04;27.56
9462;BME280;4769;42.660;23.262;2023-02-17T12:04:35;94786.44;;;17.07;27.74
9462;BME280;4769;42.660;23.262;2023-02-17T12:07:25;94787.50;;;17.11;27.77
9462;BME280;4769;42.660;23.262;2023-02-17T12:10:02;94790.72;;;17.38;27.30
9462;BME280;4769;42.660;23.262;2023-02-17T12:12:38;94775.56;;;17.74;27.20
9462;BME280;4769;42.660;23.262;2023-02-17T12:15:23;94783.84;;;17.77;26.81
9462;BME280;4769;42.660;23.262;2023-02-17T12:17:57;94773.88;;;16.93;28.08
9462;BME280;4769;42.660;23.262;2023-02-17T12:20:40;94761.19;;;17.40;27.49
9462;BME280;4769;42.660;23.262;2023-02-17T12:23:30;94762.50;;;17.82;26.97
9462;BME280;4769;42.660;23.262;2023-02-17T12:26:05;94765.16;;;17.62;26.96
9462;BME280;4769;42.660;23.262;2023-02-17T12:28:47;94750.25;;;17.81;26.91
9462;BME280;4769;42.660;23.262;2023-02-17T12:31:27;94739.25;;;17.88;26.56
9462;BME280;4769;42.660;23.262;2023-02-17T12:34:05;94739.88;;;18.58;26.18
9462;BME280;4769;42.660;23.262;2023-02-17T12:36:39;94736.44;;;19.01;25.42
9462;BME280;4769;42.660;23.262;2023-02-17T12:39:14;94727.06;;;18.55;25.96
9462;BME280;4769;42.660;23.262;2023-02-17T12:41:45;94728.34;;;19.11;25.46
9462;BME280;4769;42.660;23.262;2023-02-17T12:44:16;94726.38;;;18.35;25.90
9462;BME280;4769;42.660;23.262;2023-02-17T12:46:49;94715.53;;;18.70;25.43
9462;BME280;4769;42.660;23.262;2023-02-17T12:49:20;94718.84;;;18.42;25.74
9462;BME280;4769;42.660;23.262;2023-02-17T12:51:51;94723.44;;;18.85;25.59
9462;BME280;4769;42.660;23.262;2023-02-17T12:54:25;94718.69;;;18.72;25.73
9462;BME280;4769;42.660;23.262;2023-02-17T12:57:02;94699.50;;;18.01;26.14
9462;BME280;4769;42.660;23.262;2023-02-17T12:59:33;94704.78;;;18.16;26.25
9462;BME280;4769;42.660;23.262;2023-02-17T13:02:03;94704.13;;;18.49;25.75
9462;BME280;4769;42.660;23.262;2023-02-17T13:04:31;94703.47;;;18.72;25.37
9462;BME280;4769;42.660;23.262;2023-02-17T13:07:07;94706.94;;;18.78;25.54
9462;BME280;4769;42.660;23.262;2023-02-17T13:09:38;94709.78;;;18.43;25.76
9462;BME280;4769;42.660;23.262;2023-02-17T13:12:16;94707.03;;;18.63;25.22
9462;BME280;4769;42.660;23.262;2023-02-17T13:14:45;94718.16;;;18.75;24.80
9462;BME280;4769;42.660;23.262;2023-02-17T13:17:23;94713.94;;;18.69;25.42
9462;BME280;4769;42.660;23.262;2023-02-17T13:20:04;94698.66;;;19.13;25.24
9462;BME280;4769;42.660;23.262;2023-02-17T13:22:31;94709.13;;;19.09;24.87
9462;BME280;4769;42.660;23.262;2023-02-17T13:25:01;94709.00;;;18.86;24.64
9462;BME280;4769;42.660;23.262;2023-02-17T13:27:33;94705.63;;;18.70;24.76
9462;BME280;4769;42.660;23.262;2023-02-17T13:30:03;94703.00;;;18.65;24.44
9462;BME280;4769;42.660;23.262;2023-02-17T13:32:33;94702.69;;;19.10;24.29